Aviation Digital Data Service (ADDS)

Output produced by METARs form (1150 UTC 21 June 2018)
found at http://www.aviationweather.gov/adds/metars/
 
KHBG 211053Z AUTO 00000KT 10SM CLR 24/23 A2993 RMK AO2 SLP130 T02390233 TSNO
KHBG 210953Z AUTO 00000KT 10SM CLR 25/24 A2992 RMK AO2 SLP129 T02500239 TSNO
KHBG 210853Z AUTO 15003KT 10SM CLR 24/24 A2992 RMK AO2 SLP130 T02440239 55002 TSNO
KHBG 210753Z AUTO 00000KT 10SM CLR 25/24 A2992 RMK AO2 SLP129 T02500239 TSNO
KHBG 210653Z AUTO 00000KT 10SM CLR 25/23 A2992 RMK AO2 SLP130 T02500233 TSNO
KHBG 210553Z AUTO 00000KT 10SM CLR 26/23 A2993 RMK AO2 SLP132 T02560233 10311 20256 403330233 58004 TSNO
KHBG 210453Z AUTO 00000KT 10SM CLR 26/23 A2994 RMK AO2 SLP136 T02610233 TSNO
KHBG 210353Z AUTO 19004KT 10SM CLR 27/23 A2995 RMK AO2 SLP140 T02670228 TSNO
KHBG 210253Z AUTO 19003KT 10SM CLR 27/23 A2995 RMK AO2 SLP137 T02720228 53018 TSNO
KHBG 210153Z AUTO 19005KT 10SM CLR 28/23 A2992 RMK AO2 SLP129 T02830228 TSNO
KHBG 210053Z AUTO 19003KT 10SM CLR 29/23 A2991 RMK AO2 SLP124 T02940228 TSNO
KHBG 202353Z AUTO 18006KT 10SM CLR 31/22 A2989 RMK AO2 SLP119 T03110222 10333 20311 56007 TSNO
KHBG 202253Z AUTO 18007KT 10SM CLR 33/21 A2989 RMK AO2 SLP119 T03280211 TSNO
KHBG 202153Z AUTO 18008KT 150V220 10SM CLR 33/22 A2991 RMK AO2 SLP124 T03280217 TSNO
KHBG 202053Z AUTO 19009KT 10SM FEW049 33/22 A2991 RMK AO2 SLP126 T03330217 56020 TSNO
KHBG 201953Z AUTO 14005KT 10SM FEW060 33/22 A2993 RMK AO2 SLP131 T03280222 TSNO
KHBG 201853Z AUTO VRB04KT 10SM FEW046 33/22 A2995 RMK AO2 SLP139 T03280217 TSNO
KHBG 201753Z AUTO 15008KT 10SM SCT045 SCT050 32/22 A2997 RMK AO2 SLP146 T03220222 10322 20239 58007 TSNO
KHBG 201653Z AUTO VRB04KT 10SM FEW041 32/22 A2998 RMK AO2 SLP150 T03170217 TSNO
KHBG 201553Z AUTO 14004KT 10SM FEW034 31/22 A3000 RMK AO2 SLP155 T03060222 TSNO
KHBG 201453Z AUTO VRB03KT 10SM CLR 29/24 A2999 RMK AO2 SLP153 T02940239 50001 TSNO
KHBG 201353Z AUTO 00000KT 10SM CLR 28/24 A3000 RMK AO2 SLP157 T02780244 TSNO
KHBG 201253Z AUTO 00000KT 10SM SCT060 25/23 A3000 RMK AO2 SLP154 T02500228 TSNO
KHBG 201153Z AUTO 00000KT 9SM CLR 24/23 A2999 RMK AO2 SLP152 T02390228 10239 20233 53006 TSNO
KHBG 201053Z AUTO 00000KT 10SM CLR 23/23 A2998 RMK AO2 SLP150 T02330228 TSNO
KHBG 200953Z AUTO 00000KT 10SM CLR 23/23 A2997 RMK AO2 SLP146 T02330228 TSNO
KHBG 200853Z AUTO 00000KT 10SM CLR 24/23 A2997 RMK AO2 SLP146 T02390228 58005 TSNO
KHBG 200753Z AUTO 00000KT 10SM CLR 24/23 A2998 RMK AO2 SLP149 T02390228 TSNO
KHBG 200653Z AUTO 00000KT 10SM CLR 24/23 A2998 RMK AO2 SLP150 T02390228 TSNO
KHBG 200553Z AUTO 00000KT 10SM CLR 23/23 A2999 RMK AO2 SLP151 T02330228 10289 20233 403280228 58004 TSNO
KHBG 200453Z AUTO 00000KT 10SM CLR 24/23 A3000 RMK AO2 SLP155 T02440228 TSNO
KHBG 200353Z AUTO 00000KT 10SM CLR 24/23 A3000 RMK AO2 SLP156 T02440233 TSNO
KHBG 200253Z AUTO 10004KT 10SM CLR 25/23 A3000 RMK AO2 SLP155 T02500228 53006 TSNO
KHBG 200153Z AUTO 00000KT 10SM CLR 26/23 A2999 RMK AO2 SLP151 T02610233 TSNO
KHBG 200053Z AUTO 00000KT 10SM CLR 28/22 A2998 RMK AO2 SLP150 T02780217 TSNO
KHBG 192353Z AUTO 23004KT 10SM FEW100 29/23 A2998 RMK AO2 RAB16E25 SLP149 P0000 60000 T02890233 10328 20289 55004 TSNO
KHBG 192253Z AUTO 14003KT 10SM CLR 32/22 A2998 RMK AO2 SLP147 T03170222 TSNO
KHBG 192153Z AUTO 07004KT 10SM CLR 32/22 A2999 RMK AO2 SLP151 T03220222 TSNO
KHBG 192053Z AUTO 13006KT 10SM CLR 32/22 A2999 RMK AO2 SLP153 T03170222 58023 TSNO
KHBG 191953Z AUTO 08007KT 10SM CLR 32/23 A3002 RMK AO2 SLP162 T03170228 TSNO
KHBG 191853Z AUTO 13007KT 090V150 10SM CLR 31/23 A3004 RMK AO2 SLP170 T03060228 TSNO
KHBG 191753Z AUTO 09005KT 10SM CLR 31/22 A3006 RMK AO2 SLP176 T03060222 10306 20228 58010 TSNO
KHBG 191653Z AUTO 09005KT 10SM CLR 31/23 A3008 RMK AO2 SLP183 T03060233 TSNO
KHBG 191553Z AUTO 09005KT 10SM CLR 29/24 A3009 RMK AO2 SLP187 T02940239 TSNO
KHBG 191453Z AUTO VRB04KT 10SM CLR 27/23 A3009 RMK AO2 SLP187 T02670228 58001 TSNO
KHBG 191353Z AUTO 00000KT 10SM CLR 25/22 A3010 RMK AO2 SLP190 T02500222 TSNO
KHBG 191253Z AUTO 00000KT 10SM CLR 24/22 A3010 RMK AO2 SLP191 T02390222 TSNO
KHBG 191153Z AUTO 00000KT 10SM CLR 23/22 A3009 RMK AO2 SLP188 70071 T02280222 10233 20228 51009 TSNO
KHBG 191053Z AUTO 00000KT 10SM CLR 23/22 A3009 RMK AO2 SLP187 T02280222 TSNO
KHBG 190953Z AUTO 00000KT 10SM CLR 23/22 A3007 RMK AO2 SLP181 T02280222 TSNO
KHBG 190853Z AUTO 00000KT 10SM CLR 23/22 A3007 RMK AO2 SLP179 T02280222 55003 TSNO
KHBG 190753Z AUTO 00000KT 10SM CLR 23/23 A3006 RMK AO2 SLP177 T02280228 TSNO
KHBG 190653Z AUTO 00000KT 10SM SCT120 23/23 A3007 RMK AO2 SLP179 T02280228 TSNO
KHBG 190553Z AUTO 00000KT 10SM CLR 23/22 A3008 RMK AO2 SLP181 T02280222 10250 20228 403220222 58005 TSNO
KHBG 190453Z AUTO 00000KT 10SM CLR 23/23 A3009 RMK AO2 SLP186 T02330228 TSNO
KHBG 190353Z AUTO 00000KT 10SM CLR 23/23 A3009 RMK AO2 SLP187 T02330228 TSNO
KHBG 190253Z AUTO 00000KT 10SM CLR 24/23 A3009 RMK AO2 SLP187 T02390233 51003 TSNO
KHBG 190153Z AUTO 00000KT 10SM CLR 24/24 A3009 RMK AO2 SLP186 T02440239 TSNO
KHBG 190053Z AUTO 00000KT 10SM CLR 24/23 A3009 RMK AO2 SLP184 T02440233 TSNO
KHBG 182353Z AUTO 00000KT 10SM CLR 25/23 A3008 RMK AO2 RAB2256E06 SLP183 P0000 60071 T02500233 10322 20233 58014 TSNO
KHBG 182253Z AUTO 00000KT 10SM CLR 25/23 A3010 RMK AO2 SLP188 T02500233 TSNO
KHBG 182153Z AUTO 31004KT 10SM CLR 24/23 A3011 RMK AO2 RAE26 SLP194 P0000 T02440228 TSNO
KHBG 182053Z AUTO 32003KT 10SM -RA FEW060 BKN110 24/22 A3012 RMK AO2 RAE00B18 SLP197 P0000 60071 T02390222 58006 TSNO
KHBG 181953Z AUTO 10012KT 10SM -RA SCT024 SCT044 BKN070 24/22 A3015 RMK AO2 PK WND 17036/1920 RAB17 SLP208 P0071 T02390222 TSNO
KHBG 181942Z AUTO 12014G18KT 5SM -RA SCT023 BKN041 OVC080 24/21 A3016 RMK AO2 PK WND 17036/1920 RAB17 P0071 T02390211 TSNO
KHBG 181940Z AUTO 10009G23KT 040V130 1 1/4SM RA BKN023 BKN043 OVC080 24/21 A3015 RMK AO2 PK WND 17036/1920 RAB17 P0071 T02390211 TSNO
KHBG 181929Z AUTO 11007G36KT 030V200 1/4SM +RA FG SCT013 BKN029 BKN043 23/22 A3018 RMK AO2 PK WND 17036/1920 RAB17 PRESRR P0058 T02330217 TSNO
KHBG 181922Z AUTO 17030G36KT 1 1/4SM +RA BR FEW018 FEW029 BKN043 25/23 A3016 RMK AO2 PK WND 17036/1920 RAB17 PRESRR P0012 T02500228 TSNO
KHBG 181853Z AUTO VRB03KT 10SM FEW043 32/22 A3012 RMK AO2 SLP196 T03220217 TSNO
KHBG 181753Z AUTO 17006KT 10SM FEW030 31/21 A3014 RMK AO2 SLP203 T03060211 10311 20228 58002 TSNO
KHBG 181653Z AUTO 14006KT 10SM FEW027 30/23 A3015 RMK AO2 SLP205 T03000233 TSNO
KHBG 181646Z AUTO 12007KT 10SM FEW027 31/23 A3015 RMK AO2 T03060233 TSNO
KHBG 181639Z AUTO 11008KT 10SM BKN027 31/23 A3015 RMK AO2 T03060233 TSNO
KHBG 181553Z AUTO 08006KT 10SM SCT019 30/25 A3015 RMK AO2 SLP207 T03000250 TSNO
KHBG 181453Z AUTO 13005KT 10SM CLR 28/25 A3015 RMK AO2 SLP206 T02780250 50010 TSNO
KHBG 181353Z AUTO 12004KT 10SM CLR 27/24 A3015 RMK AO2 SLP206 T02720244 TSNO
KHBG 181253Z AUTO 14004KT 10SM CLR 24/23 A3014 RMK AO2 SLP202 T02390233 TSNO
KHBG 181153Z AUTO 14003KT 10SM CLR 23/22 A3012 RMK AO2 SLP196 70005 T02280222 10228 20222 51010 TSNO